Airfield :
LOGIN :

Register | Disclaimer

   EN    FR    IT 

 










Legend :    VFR   Marginal VFR   IFR   Intensive IFR   Very Intensive IFR
Visi :
Ceiling :
>= 8 km
>= 3000ft
5 to 8 km
1000 to 3000 ft
1500m to 5 km
500 to 1000 ft
800 to 1500m
200 to 500 ft
< 800m
< 200 ft
Symbols :   Thunderstorms  Fog  Heavy snow  Heavy precipitations  Wind > 20 kt
SIGMETs :     Misc.  Thunderstorms  Icing  Turbulence  Mountain Waves  Volcanic Ashes






- Airport Elevation : 327 ft
- IATA code : BHX


EGBB - Birmingham

CURRENT METAR :
  • 241150Z 22014G26KT 9999 BKN013 11/10 Q1002

EXPIRED METARs :
  • 241120Z 21013G23KT 9999 -RA SCT008 BKN020 10/09 Q1002
  • 241050Z 21011KT 180V250 9000 -RA BKN009 10/09 Q1003 RERA
  • 241020Z 21009KT 170V250 5000 RA BKN009 BKN021 10/09 Q1003
  • 240950Z 22012KT 190V250 5000 -RA SCT008 BKN011 10/09 Q1004
  • 240920Z 21011G23KT 5000 -RA BKN008 10/09 Q1004 RERA

TAF TAF EGBB
Valid from the 24 at 12:00 until the 25 at 12:00 UTC


241100Z 2412/2512 22020G30KT 9999 FEW008 BKN020
BECMG 2412/2415 FEW030
PROB30
TEMPO 2412/2414 6000 RADZ BKN014
BECMG 2414/2417 26020G30KT
BECMG 2417/2420 26012KT
PROB30
TEMPO 2420/2506 27015G25KT 7000 SHRA BKN014
TEMPO 2506/2512 27015G25KT 7000 SHRA
PROB30
TEMPO 2509/2512 4000 +SHRA BKN014 BKN025CB
ATIS : +44 121 780 0910



MET'MAP, your aeronautical weather chart ! - Copyright ORBIFLY December 2007 - Disclaimer

ORBIFLY MET'MAP TEAM :

Programming & Development : Alexandra Zaïnal
Concept & original design : Baudouin d'Aumeries
Assistance for programming : Marc-Olivier Méhu
Technical & hardware support : Manuel Goepfert

Contact : metmap@orbifly.com




SOURCES & CREDITS :

   NOAA